Time;durP1;ratioP1;P1;durP2;ratioP2;P2;SDS_P1;SDS_P2;PMS_P1;PMS_P2;Temp;Humidity;BMP_temperature;BMP_pressure;BME280_temperature;BME280_humidity;BME280_pressure;Samples;Min_cycle;Max_cycle;Signal;HPM_P1;HPM_P2
2023/08/17 00:00:49;;;;;;;;;25.25;23.25;;;;;23.72;59.62;101338.78;4995908;28;45421;-45
2023/08/17 00:03:14;;;;;;;;;21.50;19.25;;;;;23.72;58.01;101343.38;4995241;28;46149;-42
2023/08/17 00:05:40;;;;;;;;;21.75;19.50;;;;;23.69;58.80;101349.28;4995203;28;45374;-46
2023/08/17 00:08:05;;;;;;;;;24.75;20.50;;;;;23.65;59.52;101346.97;4995662;28;45759;-46
2023/08/17 00:10:30;;;;;;;;;23.25;19.75;;;;;23.68;59.59;101347.59;4995446;28;45283;-48
2023/08/17 00:12:56;;;;;;;;;17.50;17.25;;;;;23.67;59.40;101346.75;4995181;28;46051;-45
2023/08/17 00:15:22;;;;;;;;;17.00;14.25;;;;;23.64;59.62;101342.56;4995127;28;45974;-45
2023/08/17 00:17:47;;;;;;;;;19.00;16.00;;;;;23.69;59.95;101352.81;4995746;28;45418;-45
2023/08/17 00:20:12;;;;;;;;;22.00;17.25;;;;;23.68;59.90;101339.44;4999106;28;45449;-46
2023/08/17 00:22:38;;;;;;;;;16.50;15.75;;;;;23.68;59.76;101347.59;4998394;28;47419;-47
2023/08/17 00:25:04;;;;;;;;;13.75;13.75;;;;;23.63;59.73;101345.50;4998181;28;45321;-46
2023/08/17 00:27:32;;;;;;;;;17.00;15.75;;;;;23.64;59.92;101349.91;4998859;28;45453;-47
2023/08/17 00:29:57;;;;;;;;;18.25;15.25;;;;;23.61;60.33;101348.44;4999018;28;45381;-46
2023/08/17 00:32:22;;;;;;;;;15.25;15.00;;;;;23.55;60.42;101332.16;4998457;28;47237;-44
2023/08/17 00:34:47;;;;;;;;;14.25;14.00;;;;;23.51;60.29;101325.50;4998679;28;45314;-46
2023/08/17 00:37:13;;;;;;;;;17.50;14.75;;;;;23.59;60.42;101334.22;4998608;28;45359;-43
2023/08/17 00:39:38;;;;;;;;;13.00;13.00;;;;;23.58;60.54;101332.56;4998738;28;45306;-48
2023/08/17 00:42:04;;;;;;;;;15.50;13.00;;;;;23.55;60.89;101332.16;4998333;28;46386;-48
2023/08/17 00:44:29;;;;;;;;;16.50;13.25;;;;;23.51;61.12;101331.81;4998701;28;45486;-47
2023/08/17 00:46:55;;;;;;;;;16.25;15.25;;;;;;;;4998386;28;45235;-46
2023/08/17 00:49:20;;;;;;;;;18.00;13.75;;;;;23.46;60.69;101338.91;4998747;28;45217;-46
2023/08/17 00:51:46;;;;;;;;;16.25;13.00;;;;;23.47;60.68;101343.28;4998309;28;45429;-46
2023/08/17 00:54:12;;;;;;;;;15.00;15.00;;;;;23.45;61.60;101348.94;4998333;28;45460;-45
2023/08/17 00:56:37;;;;;;;;;15.25;14.00;;;;;23.46;61.52;101347.06;4998469;28;45369;-45
2023/08/17 00:59:03;;;;;;;;;19.50;15.75;;;;;23.41;61.50;101343.13;4998216;28;45682;-47
2023/08/17 01:01:28;;;;;;;;;16.75;14.50;;;;;23.46;61.39;101347.88;4997455;28;47048;-46
2023/08/17 01:03:53;;;;;;;;;16.25;15.00;;;;;23.42;60.99;101342.06;4998234;28;45226;-47
2023/08/17 01:06:19;;;;;;;;;14.25;14.00;;;;;23.45;61.04;101346.22;4998473;28;45862;-47
2023/08/17 01:08:46;;;;;;;;;15.50;13.50;;;;;23.44;61.43;101347.28;4998445;28;45287;-46
2023/08/17 01:11:49;;;;;;;;;15.00;12.25;;;;;23.44;60.86;101339.13;4997999;28;45364;-47
2023/08/17 01:14:23;;;;;;;;;18.25;13.25;;;;;23.43;60.85;101334.75;4937197;28;45555;-45
2023/08/17 01:17:03;;;;;;;;;16.25;15.25;;;;;23.39;61.21;101333.53;4937173;28;45539;-42
2023/08/17 01:19:29;;;;;;;;;12.25;12.25;;;;;23.38;61.73;101335.38;4937385;28;45391;-48
2023/08/17 01:22:03;;;;;;;;;16.50;13.00;;;;;23.38;61.08;101329.13;4936949;28;46273;-47
2023/08/17 01:24:29;;;;;;;;;15.80;12.60;;;;;23.35;61.36;101329.59;4936896;28;45420;-47
2023/08/17 01:26:54;;;;;;;;;16.00;15.50;;;;;23.30;61.25;101332.97;4937379;28;45361;-46
2023/08/17 01:29:20;;;;;;;;;15.75;14.50;;;;;23.30;61.91;101338.38;4936911;28;45337;-47
2023/08/17 01:32:03;;;;;;;;;20.25;16.00;;;;;23.28;60.98;101336.94;4936756;28;45404;-47
2023/08/17 01:34:36;;;;;;;;;16.80;15.80;;;;;23.26;62.25;101341.72;4936917;28;45383;-47
2023/08/17 01:37:07;;;;;;;;;18.50;14.50;;;;;23.04;61.81;101306.75;4937017;28;45375;-49
2023/08/17 01:39:39;;;;;;;;;17.75;14.50;;;;;23.20;62.09;101334.44;4936965;28;45581;-47
2023/08/17 01:42:06;;;;;;;;;14.50;14.50;;;;;23.13;62.41;101329.91;4936853;28;46376;-46
2023/08/17 01:44:32;;;;;;;;;17.80;16.40;;;;;23.12;62.61;101340.94;4936737;28;45395;-46
2023/08/17 01:46:57;;;;;;;;;20.00;15.25;;;;;23.07;62.68;101335.34;4936819;28;45421;-47
2023/08/17 01:49:23;;;;;;;;;17.00;15.25;;;;;23.03;62.33;101334.09;4937014;28;45459;-46
2023/08/17 01:51:48;;;;;;;;;14.25;14.25;;;;;22.98;62.43;101332.03;4996174;28;45491;-47
2023/08/17 01:54:13;;;;;;;;;17.00;17.00;;;;;22.95;62.89;101337.88;4997420;28;46092;-46
2023/08/17 01:56:39;;;;;;;;;16.25;14.75;;;;;22.92;62.95;101341.00;4997376;28;45366;-46
2023/08/17 01:59:04;;;;;;;;;17.75;16.25;;;;;22.79;63.15;101327.47;4997745;28;45377;-48
2023/08/17 02:01:29;;;;;;;;;17.00;15.50;;;;;22.83;63.46;101337.69;4997192;28;46754;-48
2023/08/17 02:03:55;;;;;;;;;22.00;17.00;;;;;22.80;63.96;101345.44;4997056;28;45417;-48
2023/08/17 02:06:20;;;;;;;;;21.75;17.00;;;;;22.74;63.31;101335.41;4997480;28;45440;-49
2023/08/17 02:08:46;;;;;;;;;17.75;16.25;;;;;22.69;63.88;101344.19;4997402;28;45321;-48
2023/08/17 02:11:11;;;;;;;;;13.00;12.75;;;;;22.61;64.04;101336.28;4997546;28;46067;-47
2023/08/17 02:13:37;;;;;;;;;19.75;15.75;;;;;22.62;64.20;101349.63;4997093;28;45390;-45
2023/08/17 02:16:04;;;;;;;;;19.75;17.25;;;;;22.60;64.09;101356.31;4997373;28;45368;-48
2023/08/17 02:18:31;;;;;;;;;20.25;17.50;;;;;22.52;64.39;101348.41;4997104;28;45296;-46
2023/08/17 02:20:57;;;;;;;;;21.75;17.50;;;;;22.53;64.55;101358.19;4996920;28;45458;-49
2023/08/17 02:23:22;;;;;;;;;16.75;16.75;;;;;22.53;64.54;101356.31;4996833;28;45276;-47
2023/08/17 02:25:47;;;;;;;;;17.00;17.00;;;;;22.50;64.90;101353.19;4997151;28;45332;-46
2023/08/17 02:28:13;;;;;;;;;16.00;15.00;;;;;22.48;64.75;101361.53;4997155;28;45369;-48
2023/08/17 02:30:38;;;;;;;;;22.75;19.75;;;;;22.46;65.23;101362.78;4996499;28;45310;-47
2023/08/17 02:33:04;;;;;;;;;23.00;19.50;;;;;22.49;64.96;101365.06;4996787;28;45425;-49
2023/08/17 02:35:29;;;;;;;;;19.00;18.00;;;;;22.36;64.42;101344.25;4996800;28;45419;-48
2023/08/17 02:37:55;;;;;;;;;23.25;20.00;;;;;22.55;64.98;101375.09;4996740;28;45502;-47
2023/08/17 02:40:20;;;;;;;;;20.50;18.75;;;;;22.55;64.93;101365.09;4996270;28;46020;-46
2023/08/17 02:42:46;;;;;;;;;20.00;16.75;;;;;22.60;65.10;101370.69;4996234;28;45373;-43
2023/08/17 02:45:11;;;;;;;;;17.50;17.50;;;;;22.60;64.60;101365.28;4995592;28;45441;-45
2023/08/17 02:47:36;;;;;;;;;18.25;17.50;;;;;22.61;64.74;101364.22;4996728;28;45406;-46
2023/08/17 02:50:02;;;;;;;;;20.25;18.50;;;;;22.64;64.76;101363.81;4996536;28;46067;-49
2023/08/17 02:52:27;;;;;;;;;22.00;16.75;;;;;22.66;65.02;101364.41;4996293;28;45279;-48
2023/08/17 02:54:53;;;;;;;;;21.00;18.50;;;;;22.69;64.78;101375.91;4996546;28;45258;-49
2023/08/17 02:57:18;;;;;;;;;14.50;13.75;;;;;22.70;64.53;101372.16;4996687;28;45427;-47
2023/08/17 02:59:44;;;;;;;;;18.25;18.25;;;;;22.66;64.84;101364.41;4996419;28;45403;-47
2023/08/17 03:02:09;;;;;;;;;21.00;19.25;;;;;22.65;64.76;101361.94;4996241;28;45655;-48
2023/08/17 03:04:34;;;;;;;;;21.25;20.00;;;;;22.66;64.96;101367.13;4996572;28;45366;-47
2023/08/17 03:07:00;;;;;;;;;21.25;19.25;;;;;22.73;64.71;101382.56;4996515;28;45329;-48
2023/08/17 03:09:25;;;;;;;;;21.25;19.50;;;;;22.71;64.53;101368.38;4995995;28;48432;-46
2023/08/17 03:11:50;;;;;;;;;23.00;18.50;;;;;22.70;64.69;101369.44;4996619;28;45318;-44
2023/08/17 03:14:16;;;;;;;;;20.25;17.75;;;;;22.68;64.10;101353.38;4996274;28;45373;-45
2023/08/17 03:16:41;;;;;;;;;23.25;20.25;;;;;22.59;64.71;101349.22;4996332;28;45409;-44
2023/08/17 03:19:07;;;;;;;;;17.50;17.25;;;;;22.54;64.80;101340.88;4996016;28;47651;-46
2023/08/17 03:21:34;;;;;;;;;24.00;20.75;;;;;22.58;64.64;101355.69;4996109;28;45514;-45
2023/08/17 03:23:59;;;;;;;;;25.00;20.50;;;;;22.50;65.19;101345.03;4996006;28;45429;-46
2023/08/17 03:26:24;;;;;;;;;22.50;18.50;;;;;22.54;65.17;101349.84;4996350;28;45408;-46
2023/08/17 03:28:50;;;;;;;;;22.25;16.25;;;;;22.51;65.52;101347.56;4996347;28;46171;-46
2023/08/17 03:31:15;;;;;;;;;25.00;22.00;;;;;22.53;65.49;101350.06;4995954;28;45444;-44
2023/08/17 03:33:40;;;;;;;;;27.75;21.00;;;;;22.50;65.33;101345.03;4996221;28;45297;-46
2023/08/17 03:36:06;;;;;;;;;22.00;20.75;;;;;22.46;65.58;101347.38;4996443;28;45447;-46
2023/08/17 03:38:31;;;;;;;;;27.00;23.25;;;;;22.48;65.73;101341.72;4995658;28;46401;-45
2023/08/17 03:40:57;;;;;;;;;21.25;19.50;;;;;22.48;65.43;101352.56;4995999;28;45408;-46
2023/08/17 03:43:22;;;;;;;;;23.25;19.75;;;;;22.47;65.62;101349.03;4995832;28;45326;-45
2023/08/17 03:45:47;;;;;;;;;24.25;21.50;;;;;22.47;65.84;101349.03;4996431;28;45409;-50
2023/08/17 03:48:13;;;;;;;;;24.50;20.75;;;;;22.47;65.90;101345.50;4995685;28;45372;-46
2023/08/17 03:50:38;;;;;;;;;38.67;34.00;;;;;22.45;65.97;101345.69;4994445;28;45325;-47
2023/08/17 03:53:04;;;;;;;;;48.33;39.33;;;;;22.42;66.26;101338.81;4998119;28;45393;-46
2023/08/17 03:55:30;;;;;;;;;25.75;21.25;;;;;22.40;66.04;101343.59;4999457;28;45474;-45
2023/08/17 03:57:55;;;;;;;;;25.00;23.25;;;;;22.39;65.89;101347.38;4998966;28;47437;-47
2023/08/17 04:00:20;;;;;;;;;33.00;30.00;;;;;22.33;66.23;101342.81;4999314;28;45374;-46
2023/08/17 04:02:46;;;;;;;;;29.00;22.25;;;;;22.39;65.91;101349.25;4999143;28;45334;-48
2023/08/17 04:05:12;;;;;;;;;31.33;28.00;;;;;22.35;66.14;101342.59;4999638;28;45378;-44
2023/08/17 04:07:37;;;;;;;;;25.00;23.00;;;;;22.37;66.63;101343.19;4998982;28;45971;-48
2023/08/17 04:10:05;;;;;;;;;23.75;19.75;;;;;22.37;66.16;101346.72;4998933;28;45484;-48
2023/08/17 04:12:30;;;;;;;;;24.00;20.75;;;;;22.24;66.63;101329.66;4999061;28;45420;-49
2023/08/17 04:14:55;;;;;;;;;29.75;22.00;;;;;22.25;66.61;101336.72;4999325;28;45384;-48
2023/08/17 04:17:21;;;;;;;;;19.50;18.00;;;;;22.18;66.35;101331.34;4998685;28;45390;-47
2023/08/17 04:19:47;;;;;;;;;20.50;18.00;;;;;22.14;66.48;101347.16;4998742;28;45377;-47
2023/08/17 04:22:12;;;;;;;;;21.75;19.75;;;;;22.07;66.45;101340.03;4998744;28;45463;-48
2023/08/17 04:24:37;;;;;;;;;23.75;22.25;;;;;22.00;67.39;101345.47;4999114;28;45476;-48
2023/08/17 04:27:03;;;;;;;;;29.50;21.50;;;;;21.96;67.77;101341.50;4998404;28;46282;-47
2023/08/17 04:29:30;;;;;;;;;22.50;21.75;;;;;21.91;67.63;101347.56;4998758;28;46033;-47
2023/08/17 04:31:55;;;;;;;;;27.67;26.33;;;;;21.87;67.99;101345.47;4998723;28;45424;-43
2023/08/17 04:34:20;;;;;;;;;28.50;23.75;;;;;21.83;67.82;101349.63;4998949;28;45398;-47
2023/08/17 04:36:46;;;;;;;;;25.25;21.25;;;;;21.79;68.16;101348.38;4997124;28;47198;-45
2023/08/17 04:39:11;;;;;;;;;26.75;22.00;;;;;21.77;68.44;101348.56;4998411;28;45408;-46
2023/08/17 04:41:37;;;;;;;;;27.00;24.33;;;;;21.75;68.75;101353.34;4998838;28;45585;-46
2023/08/17 04:44:02;;;;;;;;;23.25;20.25;;;;;21.68;68.75;101347.91;4998630;28;45469;-45
2023/08/17 04:46:28;;;;;;;;;28.33;26.00;;;;;21.68;68.54;101350.63;4997779;28;46033;-45
2023/08/17 04:48:53;;;;;;;;;26.75;25.25;;;;;21.67;68.79;101351.66;4998514;28;45806;-44
2023/08/17 04:51:18;;;;;;;;;25.00;22.75;;;;;21.65;68.74;101351.03;4998557;28;45255;-45
2023/08/17 04:53:44;;;;;;;;;32.00;24.00;;;;;21.64;68.99;101351.25;4998826;28;45362;-47
2023/08/17 04:56:10;;;;;;;;;30.25;23.50;;;;;21.58;68.65;101352.91;4998259;28;46320;-47
2023/08/17 04:58:35;;;;;;;;;25.75;24.25;;;;;21.56;69.10;101341.44;4998048;28;45423;-45
2023/08/17 05:01:02;;;;;;;;;24.33;22.67;;;;;21.56;68.92;101352.25;4998074;28;45564;-45
2023/08/17 05:03:27;;;;;;;;;28.33;23.67;;;;;21.52;69.25;101339.34;4997803;28;45349;-43
2023/08/17 05:05:53;;;;;;;;;23.25;19.25;;;;;21.49;69.38;101345.16;4997708;28;45400;-46
2023/08/17 05:08:18;;;;;;;;;24.00;23.25;;;;;21.51;69.25;101343.91;4998100;28;45386;-44
2023/08/17 05:10:44;;;;;;;;;29.50;24.50;;;;;21.51;69.77;101346.63;4998131;28;45307;-49
2023/08/17 05:13:09;;;;;;;;;29.75;26.00;;;;;21.52;69.63;101347.47;4998138;28;45480;-46
2023/08/17 05:15:34;;;;;;;;;34.25;29.25;;;;;21.53;69.69;101349.97;4997915;28;50547;-45
2023/08/17 05:18:00;;;;;;;;;29.67;27.67;;;;;21.52;70.25;101342.03;4997632;28;45312;-43
2023/08/17 05:20:25;;;;;;;;;30.00;25.00;;;;;21.55;70.18;101342.47;4998049;28;45391;-43
2023/08/17 05:22:50;;;;;;;;;35.00;28.00;;;;;21.56;70.03;101338.72;4998095;28;45281;-45
2023/08/17 05:25:16;;;;;;;;;25.33;24.33;;;;;21.60;70.01;101339.16;4997839;28;47327;-46
2023/08/17 05:27:41;;;;;;;;;31.25;23.75;;;;;21.62;69.44;101334.38;4997695;28;45443;-45
2023/08/17 05:30:07;;;;;;;;;38.00;29.33;;;;;21.64;69.97;101333.13;4997784;28;45411;-47
2023/08/17 05:32:32;;;;;;;;;27.75;25.00;;;;;21.67;69.69;101330.00;4998156;28;45333;-46
2023/08/17 05:34:58;;;;;;;;;30.33;25.67;;;;;21.70;69.71;101327.91;4996377;28;46286;-47
2023/08/17 05:37:23;;;;;;;;;26.25;25.00;;;;;21.69;70.07;101321.66;4997580;28;45337;-49
2023/08/17 05:39:48;;;;;;;;;30.67;28.33;;;;;21.75;69.88;101326.28;4997782;28;45309;-46
2023/08/17 05:42:14;;;;;;;;;35.50;30.00;;;;;21.75;69.43;101314.63;4998183;28;45168;-47
2023/08/17 05:44:39;;;;;;;;;35.33;28.00;;;;;21.80;69.86;101322.94;4997572;28;46057;-46
2023/08/17 05:47:04;;;;;;;;;28.67;25.33;;;;;21.83;69.58;101323.38;4997682;28;48139;-47
2023/08/17 05:49:30;;;;;;;;;32.67;29.67;;;;;21.86;69.54;101324.81;4997806;28;45255;-47
2023/08/17 05:51:56;;;;;;;;;33.67;29.67;;;;;21.90;69.44;101321.47;4997828;28;45570;-48
2023/08/17 05:54:21;;;;;;;;;37.00;29.67;;;;;21.92;69.71;101322.13;4997691;28;46419;-44
2023/08/17 05:56:47;;;;;;;;;34.00;28.67;;;;;21.97;69.72;101323.38;4997356;28;45482;-47
2023/08/17 05:59:13;;;;;;;;;32.33;29.33;;;;;22.00;69.51;101322.97;4997468;28;45552;-47
2023/08/17 06:01:40;;;;;;;;;33.67;29.00;;;;;22.04;69.32;101316.09;4997642;28;45571;-44
2023/08/17 06:04:05;;;;;;;;;32.00;27.33;;;;;22.06;69.50;101316.72;4997149;28;45440;-47
2023/08/17 06:06:31;;;;;;;;;37.33;31.33;;;;;22.07;69.05;101311.06;4997492;28;45298;-48
2023/08/17 06:08:56;;;;;;;;;34.33;28.00;;;;;22.15;69.24;101315.47;4997217;28;45163;-46
2023/08/17 06:11:23;;;;;;;;;34.00;30.00;;;;;22.16;68.77;101314.44;4997651;28;45167;-45
2023/08/17 06:13:48;;;;;;;;;35.67;32.00;;;;;22.22;68.95;101316.31;4996952;28;46525;-43
2023/08/17 06:16:13;;;;;;;;;34.33;28.00;;;;;22.24;68.73;101311.50;4996962;28;45231;-43
2023/08/17 06:18:39;;;;;;;;;33.50;29.50;;;;;22.30;68.40;101318.81;4996971;28;45378;-48
2023/08/17 06:21:04;;;;;;;;;31.67;29.33;;;;;22.29;68.59;101303.59;4997345;28;45341;-46
2023/08/17 06:23:29;;;;;;;;;30.00;26.33;;;;;22.33;67.99;101309.41;4996797;28;45440;-45
2023/08/17 06:26:01;;;;;;;;;34.75;29.00;;;;;22.44;68.08;101324.22;4996520;28;49208;-47
2023/08/17 06:28:28;;;;;;;;;35.75;29.50;;;;;22.48;68.00;101315.44;4997021;28;45449;-45
2023/08/17 06:30:54;;;;;;;;;33.67;30.00;;;;;22.52;67.52;101321.28;4997124;28;45336;-47
2023/08/17 06:33:21;;;;;;;;;37.33;30.33;;;;;22.56;67.62;101323.34;4995357;28;47240;-47
2023/08/17 06:35:46;;;;;;;;;32.00;28.67;;;;;22.63;67.55;101326.91;4996631;28;45421;-47
2023/08/17 06:38:12;;;;;;;;;41.33;32.33;;;;;22.68;67.51;101328.97;4996625;28;45374;-45
2023/08/17 06:40:37;;;;;;;;;32.75;30.00;;;;;22.72;67.31;101318.53;4996909;28;45427;-46
2023/08/17 06:43:03;;;;;;;;;34.25;26.75;;;;;22.79;66.75;101324.75;4996599;28;45343;-46
2023/08/17 06:45:28;;;;;;;;;36.75;29.50;;;;;22.82;66.52;101313.47;4996341;28;45437;-46
2023/08/17 06:47:53;;;;;;;;;35.67;28.00;;;;;22.89;66.32;101323.28;4996353;28;45448;-46
2023/08/17 06:50:19;;;;;;;;;39.50;30.00;;;;;22.99;66.02;101308.44;4996795;28;45465;-45
2023/08/17 06:52:44;;;;;;;;;28.75;25.25;;;;;23.07;65.95;101316.34;4996254;28;45562;-45
2023/08/17 06:55:12;;;;;;;;;31.00;28.00;;;;;23.12;65.66;101311.94;4996526;28;45389;-48
2023/08/17 06:57:38;;;;;;;;;33.50;28.25;;;;;23.24;65.42;101311.25;4996506;28;45275;-46
2023/08/17 07:00:06;;;;;;;;;33.75;28.25;;;;;23.35;64.73;101311.41;4996523;28;45418;-46
2023/08/17 07:02:32;;;;;;;;;31.00;28.25;;;;;23.45;64.60;101299.25;4996311;28;46401;-47
2023/08/17 07:04:57;;;;;;;;;36.75;26.75;;;;;23.68;64.34;101304.94;4996017;28;45397;-48
2023/08/17 07:07:23;;;;;;;;;36.25;29.50;;;;;24.01;63.31;101298.44;4996663;28;45555;-47
2023/08/17 07:09:48;;;;;;;;;28.25;27.25;;;;;24.83;61.18;101302.66;4996643;28;45700;-46
2023/08/17 07:12:13;;;;;;;;;34.25;30.50;;;;;26.01;58.26;101295.78;4995867;28;46075;-47
2023/08/17 07:14:39;;;;;;;;;37.75;29.00;;;;;27.03;55.66;101297.22;4996275;28;45486;-45
2023/08/17 07:17:04;;;;;;;;;35.75;29.50;;;;;27.78;53.70;101296.22;4996228;28;45348;-50
2023/08/17 07:19:29;;;;;;;;;36.50;28.75;;;;;28.43;51.49;101298.34;4996330;28;45479;-47
2023/08/17 07:21:55;;;;;;;;;35.50;27.25;;;;;29.08;50.26;101289.34;4995669;28;46376;-46
2023/08/17 07:24:20;;;;;;;;;34.25;31.25;;;;;29.64;48.87;101286.38;4996161;28;45302;-50
2023/08/17 07:26:46;;;;;;;;;33.75;31.75;;;;;30.12;47.97;101281.78;4995714;28;45457;-48
2023/08/17 07:29:11;;;;;;;;;29.00;23.25;;;;;30.41;47.21;101285.03;4996293;28;45400;-48
2023/08/17 07:31:37;;;;;;;;;32.25;25.50;;;;;30.61;46.71;101283.50;4995877;28;45354;-48
2023/08/17 07:34:04;;;;;;;;;32.60;27.40;;;;;30.72;45.94;101277.81;4995457;28;45385;-50
2023/08/17 07:36:30;;;;;;;;;27.60;23.00;;;;;30.98;45.58;101283.41;4995969;28;45349;-48
2023/08/17 07:38:56;;;;;;;;;28.25;27.00;;;;;31.27;44.83;101292.00;4996214;28;45636;-48
2023/08/17 07:41:21;;;;;;;;;31.50;29.00;;;;;31.49;44.30;101286.28;4995969;28;47261;-48
2023/08/17 07:43:46;;;;;;;;;34.00;30.00;;;;;31.57;45.30;101284.91;4995778;28;45402;-48
2023/08/17 07:46:12;;;;;;;;;32.50;27.25;;;;;31.70;44.75;101282.44;4995954;28;45490;-46
2023/08/17 07:48:37;;;;;;;;;29.75;28.25;;;;;31.86;43.78;101288.78;4995899;28;45395;-48
2023/08/17 07:51:02;;;;;;;;;34.75;28.50;;;;;32.03;44.32;101292.06;4995552;28;46549;-46
2023/08/17 07:53:28;;;;;;;;;27.00;27.00;;;;;32.31;44.75;101289.81;4995632;28;45371;-46
2023/08/17 07:55:53;;;;;;;;;39.00;32.25;;;;;32.59;45.45;101299.41;4995831;28;45354;-47
2023/08/17 07:58:18;;;;;;;;;33.75;28.00;;;;;32.83;42.96;101302.34;4995976;28;45531;-47
2023/08/17 08:00:44;;;;;;;;;34.75;30.75;;;;;33.12;44.39;101297.00;4995429;28;47760;-46
2023/08/17 08:03:09;;;;;;;;;40.25;32.75;;;;;33.45;41.96;101298.16;4995599;28;45412;-49
2023/08/17 08:05:34;;;;;;;;;29.25;26.00;;;;;33.94;40.27;101302.75;4995657;28;45482;-44
2023/08/17 08:08:00;;;;;;;;;38.50;32.00;;;;;34.95;40.10;101307.47;4995743;28;45375;-43
2023/08/17 08:10:26;;;;;;;;;29.50;25.75;;;;;36.30;36.10;101303.97;4995540;28;46701;-46
2023/08/17 08:12:51;;;;;;;;;25.20;23.00;;;;;37.65;36.52;101302.44;4995487;28;45215;-44
2023/08/17 08:15:17;;;;;;;;;21.25;21.00;;;;;38.54;32.82;101303.44;4995458;28;45345;-45
2023/08/17 08:17:42;;;;;;;;;26.25;25.50;;;;;39.39;30.95;101306.72;4995330;28;45246;-48
2023/08/17 08:20:08;;;;;;;;;27.50;24.75;;;;;40.25;30.85;101309.72;4995069;28;45485;-45
2023/08/17 08:22:33;;;;;;;;;27.25;23.25;;;;;40.70;29.79;101298.03;4994895;28;45524;-45
2023/08/17 08:24:58;;;;;;;;;26.50;24.25;;;;;41.11;31.42;101300.06;4995467;28;45330;-47
2023/08/17 08:27:24;;;;;;;;;27.00;23.75;;;;;41.57;28.34;101299.00;4995534;28;45182;-46
2023/08/17 08:29:50;;;;;;;;;23.40;23.40;;;;;42.08;28.26;101301.59;4994948;28;46531;-49
2023/08/17 08:32:15;;;;;;;;;23.50;21.50;;;;;42.60;26.81;101298.13;4995340;28;45391;-46
2023/08/17 08:34:40;;;;;;;;;20.25;20.25;;;;;43.12;26.89;101299.41;4995179;28;45379;-46
2023/08/17 08:37:06;;;;;;;;;27.50;21.75;;;;;43.65;27.55;101298.13;4995462;28;45513;-47
2023/08/17 08:39:31;;;;;;;;;25.50;21.50;;;;;44.11;25.17;101306.97;4996259;28;45605;-48
2023/08/17 08:41:58;;;;;;;;;23.75;20.00;;;;;44.63;25.77;101305.88;4998300;28;45335;-46
2023/08/17 08:44:23;;;;;;;;;25.40;19.60;;;;;45.12;26.45;101311.00;4998722;28;45472;-44
2023/08/17 08:46:49;;;;;;;;;23.50;20.00;;;;;45.49;23.91;101302.97;4998506;28;45511;-49
2023/08/17 08:49:20;;;;;;;;;16.50;16.25;;;;;45.82;23.39;101304.41;4998193;28;46320;-48
2023/08/17 08:51:50;;;;;;;;;23.20;21.20;;;;;46.34;22.86;101294.44;4998273;28;45613;-47
2023/08/17 08:54:24;;;;;;;;;19.20;18.60;;;;;46.91;23.83;101306.56;4998374;28;45473;-43
2023/08/17 08:56:54;;;;;;;;;21.60;18.20;;;;;47.16;21.29;101303.31;4998144;28;45321;-44
2023/08/17 08:59:20;;;;;;;;;19.80;19.60;;;;;47.40;22.81;101299.16;4998111;28;46255;-48
2023/08/17 09:01:46;;;;;;;;;17.20;17.20;;;;;47.65;21.32;101305.06;4998171;28;45308;-46
2023/08/17 09:04:12;;;;;;;;;21.00;18.40;;;;;48.05;20.80;101297.84;4998155;28;45404;-46
2023/08/17 09:06:40;;;;;;;;;21.25;20.00;;;;;48.30;20.33;101307.31;4998373;28;45456;-48
2023/08/17 09:09:06;;;;;;;;;24.60;23.00;;;;;48.49;19.77;101297.78;4997857;28;46495;-48
2023/08/17 09:11:31;;;;;;;;;19.80;17.00;;;;;49.04;19.60;101300.50;4998074;28;45322;-47
2023/08/17 09:13:56;;;;;;;;;18.25;17.50;;;;;49.24;20.44;101306.69;4998129;28;45291;-47
2023/08/17 09:16:22;;;;;;;;;15.00;14.75;;;;;49.53;18.51;101290.63;4998132;28;45349;-49
2023/08/17 09:18:47;;;;;;;;;21.25;20.00;;;;;49.56;18.99;101297.47;4997629;28;45712;-44
2023/08/17 09:21:25;;;;;;;;;19.50;19.50;;;;;49.69;19.14;101291.06;4997626;28;45482;-47
2023/08/17 09:23:55;;;;;;;;;18.00;16.00;;;;;49.91;19.38;101285.44;4997836;28;45295;-47
2023/08/17 09:26:23;;;;;;;;;21.00;19.40;;;;;49.98;18.22;101288.25;4998316;28;45409;-46
2023/08/17 09:28:49;;;;;;;;;19.00;17.20;;;;;50.06;18.11;101295.50;4997677;28;45261;-48
2023/08/17 09:31:14;;;;;;;;;18.40;16.80;;;;;50.41;19.36;101294.72;4997536;28;45406;-49
2023/08/17 09:33:40;;;;;;;;;18.00;17.75;;;;;50.65;18.40;101286.56;4997840;28;45673;-47
2023/08/17 09:36:05;;;;;;;;;18.50;18.00;;;;;50.75;18.11;101280.06;4997832;28;45440;-49
2023/08/17 09:38:30;;;;;;;;;17.25;14.75;;;;;50.88;17.36;101275.59;4997470;28;47411;-46
2023/08/17 09:40:57;;;;;;;;;16.25;15.75;;;;;51.08;17.75;101284.41;4997556;28;45425;-47
2023/08/17 09:43:24;;;;;;;;;12.60;12.20;;;;;51.16;19.01;101276.66;4997677;28;45420;-47
2023/08/17 09:45:49;;;;;;;;;17.60;15.20;;;;;51.20;17.23;101271.75;4997915;28;45456;-50
2023/08/17 09:48:19;;;;;;;;;16.00;15.50;;;;;51.45;17.62;101273.66;4997394;28;47106;-47
2023/08/17 09:50:47;;;;;;;;;16.00;15.20;;;;;51.56;17.11;101268.78;4997140;28;45484;-46
2023/08/17 09:53:17;;;;;;;;;12.00;12.00;;;;;51.91;16.42;101281.88;4997451;28;45421;-49
2023/08/17 09:55:43;;;;;;;;;18.60;15.40;;;;;52.18;16.58;101278.41;4997754;28;45214;-46
2023/08/17 09:58:09;;;;;;;;;15.20;15.20;;;;;52.23;16.54;101266.59;4996998;28;45225;-50
2023/08/17 10:00:35;;;;;;;;;14.25;14.25;;;;;52.27;16.49;101271.00;4997143;28;45497;-48
2023/08/17 10:03:04;;;;;;;;;16.20;16.20;;;;;52.28;15.72;101263.31;4997340;28;45451;-49
2023/08/17 10:05:35;;;;;;;;;14.60;13.40;;;;;52.57;15.62;101258.13;4997573;28;45936;-47
2023/08/17 10:08:03;;;;;;;;;15.20;14.20;;;;;52.95;16.00;101250.34;4997106;28;47215;-49
2023/08/17 10:10:34;;;;;;;;;19.00;15.40;;;;;53.27;15.52;101261.31;4996996;28;45327;-47
2023/08/17 10:13:10;;;;;;;;;18.80;16.20;;;;;53.45;15.68;101258.16;4996998;28;45471;-46
2023/08/17 10:15:57;;;;;;;;;15.80;15.60;;;;;53.47;15.88;101241.47;4997378;28;45425;-45
2023/08/17 10:18:31;;;;;;;;;14.60;14.60;;;;;53.73;15.02;101251.22;4996844;28;47585;-45
2023/08/17 10:21:10;;;;;;;;;16.00;13.40;;;;;53.78;14.50;101245.06;4996700;28;45488;-49
2023/08/17 10:23:37;;;;;;;;;13.20;11.20;;;;;53.92;14.44;101229.78;4996581;28;45283;-48
2023/08/17 10:26:02;;;;;;;;;13.40;12.00;;;;;54.11;14.97;101233.09;4997389;28;45227;-47
2023/08/17 10:28:30;;;;;;;;;15.00;12.00;;;;;54.05;14.00;101230.75;4996606;28;46675;-45
2023/08/17 10:30:56;;;;;;;;;12.00;11.40;;;;;54.02;15.26;101225.91;4996645;28;45468;-45
2023/08/17 10:33:22;;;;;;;;;13.00;10.50;;;;;53.90;13.94;101215.16;4996955;28;45468;-47
2023/08/17 10:35:48;;;;;;;;;17.00;13.40;;;;;54.05;13.96;101222.19;4996700;28;45368;-47
2023/08/17 10:38:15;;;;;;;;;15.00;13.20;;;;;54.23;15.54;101221.06;4996161;28;45451;-45
2023/08/17 10:40:42;;;;;;;;;11.00;10.80;;;;;54.14;14.67;101223.69;4996581;28;45327;-47
2023/08/17 10:43:08;;;;;;;;;15.00;11.20;;;;;54.23;14.01;101221.06;4996611;28;45548;-45
2023/08/17 10:45:35;;;;;;;;;11.00;11.00;;;;;54.18;14.97;101213.03;4996428;28;45638;-48
2023/08/17 10:48:06;;;;;;;;;11.60;11.60;;;;;54.17;13.25;101214.28;4996459;28;46133;-47
2023/08/17 10:50:33;;;;;;;;;11.40;11.00;;;;;54.16;12.98;101212.66;4996295;28;45402;-48
2023/08/17 10:53:04;;;;;;;;;13.20;11.40;;;;;54.39;14.11;101211.81;4996534;28;45299;-46
2023/08/17 10:55:45;;;;;;;;;15.20;12.40;;;;;54.49;14.28;101205.91;4996617;28;45452;-47
2023/08/17 10:58:13;;;;;;;;;14.80;12.20;;;;;54.70;13.61;101207.50;4996404;28;46228;-46
2023/08/17 11:00:41;;;;;;;;;11.80;10.60;;;;;54.77;14.27;101207.34;4996205;28;45469;-46
2023/08/17 11:03:10;;;;;;;;;9.00;9.00;;;;;54.72;13.94;101207.84;4995615;28;45190;-47
2023/08/17 11:05:38;;;;;;;;;12.00;10.80;;;;;54.62;13.44;101208.91;4996533;28;45666;-46